sensor_id;sensor_type;location;lat;lon;timestamp;temperature;humidity
12436;DHT22;6282;51.440;6.938;2023-02-01T00:02:01;5.60;99.90
12436;DHT22;6282;51.440;6.938;2023-02-01T00:04:29;5.60;99.90
12436;DHT22;6282;51.440;6.938;2023-02-01T00:06:56;5.60;99.90
12436;DHT22;6282;51.440;6.938;2023-02-01T00:09:22;5.60;99.90
12436;DHT22;6282;51.440;6.938;2023-02-01T00:11:49;5.60;99.90
12436;DHT22;6282;51.440;6.938;2023-02-01T00:14:17;5.60;99.90
12436;DHT22;6282;51.440;6.938;2023-02-01T00:16:44;5.60;99.90
12436;DHT22;6282;51.440;6.938;2023-02-01T00:19:12;5.70;99.90
12436;DHT22;6282;51.440;6.938;2023-02-01T00:21:40;5.70;99.90
12436;DHT22;6282;51.440;6.938;2023-02-01T00:24:08;5.70;99.90
12436;DHT22;6282;51.440;6.938;2023-02-01T00:26:37;5.60;99.90
12436;DHT22;6282;51.440;6.938;2023-02-01T00:29:06;5.60;99.90
12436;DHT22;6282;51.440;6.938;2023-02-01T00:31:35;5.60;99.90
12436;DHT22;6282;51.440;6.938;2023-02-01T00:34:02;5.60;99.90
12436;DHT22;6282;51.440;6.938;2023-02-01T00:36:29;5.60;99.90
12436;DHT22;6282;51.440;6.938;2023-02-01T00:38:56;5.60;99.90
12436;DHT22;6282;51.440;6.938;2023-02-01T00:41:23;5.60;99.90
12436;DHT22;6282;51.440;6.938;2023-02-01T00:43:51;5.60;99.90
12436;DHT22;6282;51.440;6.938;2023-02-01T00:46:19;5.60;99.90
12436;DHT22;6282;51.440;6.938;2023-02-01T00:48:48;5.60;99.90
12436;DHT22;6282;51.440;6.938;2023-02-01T00:51:16;5.60;99.90
12436;DHT22;6282;51.440;6.938;2023-02-01T00:53:43;5.60;99.90
12436;DHT22;6282;51.440;6.938;2023-02-01T00:56:11;5.60;99.90
12436;DHT22;6282;51.440;6.938;2023-02-01T00:58:38;5.60;99.90
12436;DHT22;6282;51.440;6.938;2023-02-01T01:01:07;5.60;99.90
12436;DHT22;6282;51.440;6.938;2023-02-01T01:03:35;5.60;99.90
12436;DHT22;6282;51.440;6.938;2023-02-01T01:06:05;5.70;99.90
12436;DHT22;6282;51.440;6.938;2023-02-01T01:08:33;5.60;99.90
12436;DHT22;6282;51.440;6.938;2023-02-01T01:11:04;5.80;99.90
12436;DHT22;6282;51.440;6.938;2023-02-01T01:13:31;5.80;99.90
12436;DHT22;6282;51.440;6.938;2023-02-01T01:16:00;5.90;99.90
12436;DHT22;6282;51.440;6.938;2023-02-01T01:18:28;5.90;99.90
12436;DHT22;6282;51.440;6.938;2023-02-01T01:20:55;5.90;99.90
12436;DHT22;6282;51.440;6.938;2023-02-01T01:23:24;5.80;99.90
12436;DHT22;6282;51.440;6.938;2023-02-01T01:25:51;5.90;99.90
12436;DHT22;6282;51.440;6.938;2023-02-01T01:28:17;5.70;99.90
12436;DHT22;6282;51.440;6.938;2023-02-01T01:30:44;5.90;99.90
12436;DHT22;6282;51.440;6.938;2023-02-01T01:33:11;5.90;99.90
12436;DHT22;6282;51.440;6.938;2023-02-01T01:35:38;5.90;99.90
12436;DHT22;6282;51.440;6.938;2023-02-01T01:38:05;5.90;99.90
12436;DHT22;6282;51.440;6.938;2023-02-01T01:40:33;5.90;99.90
12436;DHT22;6282;51.440;6.938;2023-02-01T01:43:00;5.90;99.90
12436;DHT22;6282;51.440;6.938;2023-02-01T01:45:28;5.90;99.90
12436;DHT22;6282;51.440;6.938;2023-02-01T01:47:57;5.80;99.90
12436;DHT22;6282;51.440;6.938;2023-02-01T01:50:28;5.80;99.90
12436;DHT22;6282;51.440;6.938;2023-02-01T01:52:57;5.80;99.90
12436;DHT22;6282;51.440;6.938;2023-02-01T01:55:26;5.80;99.90
12436;DHT22;6282;51.440;6.938;2023-02-01T01:57:58;5.70;99.90
12436;DHT22;6282;51.440;6.938;2023-02-01T02:00:26;5.70;99.90
12436;DHT22;6282;51.440;6.938;2023-02-01T02:02:58;5.70;99.90
12436;DHT22;6282;51.440;6.938;2023-02-01T02:05:26;5.80;99.90
12436;DHT22;6282;51.440;6.938;2023-02-01T02:07:58;5.70;99.90
12436;DHT22;6282;51.440;6.938;2023-02-01T02:10:25;5.90;99.90
12436;DHT22;6282;51.440;6.938;2023-02-01T02:13:15;5.70;99.90
12436;DHT22;6282;51.440;6.938;2023-02-01T02:15:47;5.70;99.90
12436;DHT22;6282;51.440;6.938;2023-02-01T02:18:18;5.80;99.90
12436;DHT22;6282;51.440;6.938;2023-02-01T02:21:15;5.60;99.90
12436;DHT22;6282;51.440;6.938;2023-02-01T02:24:25;5.60;99.90
12436;DHT22;6282;51.440;6.938;2023-02-01T02:27:08;5.50;99.90
12436;DHT22;6282;51.440;6.938;2023-02-01T02:35:57;5.40;99.90
12436;DHT22;6282;51.440;6.938;2023-02-01T02:38:31;5.50;99.90
12436;DHT22;6282;51.440;6.938;2023-02-01T02:41:06;5.50;99.90
12436;DHT22;6282;51.440;6.938;2023-02-01T02:43:41;5.50;99.90
12436;DHT22;6282;51.440;6.938;2023-02-01T02:46:36;5.50;99.90
12436;DHT22;6282;51.440;6.938;2023-02-01T02:49:25;5.40;99.90
12436;DHT22;6282;51.440;6.938;2023-02-01T02:51:59;5.40;99.90
12436;DHT22;6282;51.440;6.938;2023-02-01T02:54:47;5.40;99.90
12436;DHT22;6282;51.440;6.938;2023-02-01T02:57:20;5.50;99.90
12436;DHT22;6282;51.440;6.938;2023-02-01T03:00:09;5.30;99.90
12436;DHT22;6282;51.440;6.938;2023-02-01T03:02:54;5.20;99.90
12436;DHT22;6282;51.440;6.938;2023-02-01T03:05:42;5.20;99.90
12436;DHT22;6282;51.440;6.938;2023-02-01T03:08:12;5.20;99.90
12436;DHT22;6282;51.440;6.938;2023-02-01T03:10:53;5.10;99.90
12436;DHT22;6282;51.440;6.938;2023-02-01T03:13:31;5.10;99.90
12436;DHT22;6282;51.440;6.938;2023-02-01T03:16:05;5.10;99.90
12436;DHT22;6282;51.440;6.938;2023-02-01T03:18:36;5.10;99.90
12436;DHT22;6282;51.440;6.938;2023-02-01T03:21:09;5.10;99.90
12436;DHT22;6282;51.440;6.938;2023-02-01T03:23:38;5.20;99.90
12436;DHT22;6282;51.440;6.938;2023-02-01T03:26:08;5.30;99.90
12436;DHT22;6282;51.440;6.938;2023-02-01T03:28:43;5.30;99.90
12436;DHT22;6282;51.440;6.938;2023-02-01T03:31:11;5.50;99.90
12436;DHT22;6282;51.440;6.938;2023-02-01T03:33:39;5.30;99.90
12436;DHT22;6282;51.440;6.938;2023-02-01T03:36:15;5.40;99.90
12436;DHT22;6282;51.440;6.938;2023-02-01T03:38:50;5.40;99.90
12436;DHT22;6282;51.440;6.938;2023-02-01T03:41:21;5.40;99.90
12436;DHT22;6282;51.440;6.938;2023-02-01T03:43:53;5.40;99.90
12436;DHT22;6282;51.440;6.938;2023-02-01T03:46:27;5.20;99.90
12436;DHT22;6282;51.440;6.938;2023-02-01T03:49:00;5.40;99.90
12436;DHT22;6282;51.440;6.938;2023-02-01T03:51:28;5.50;99.90
12436;DHT22;6282;51.440;6.938;2023-02-01T03:53:59;5.50;99.90
12436;DHT22;6282;51.440;6.938;2023-02-01T03:56:28;5.50;99.90
12436;DHT22;6282;51.440;6.938;2023-02-01T03:58:56;5.50;99.90
12436;DHT22;6282;51.440;6.938;2023-02-01T04:01:27;5.50;99.90
12436;DHT22;6282;51.440;6.938;2023-02-01T04:03:55;5.40;99.90
12436;DHT22;6282;51.440;6.938;2023-02-01T04:06:22;5.50;99.90
12436;DHT22;6282;51.440;6.938;2023-02-01T04:08:49;5.50;99.90
12436;DHT22;6282;51.440;6.938;2023-02-01T04:11:18;5.40;99.90
12436;DHT22;6282;51.440;6.938;2023-02-01T04:13:45;5.50;99.90
12436;DHT22;6282;51.440;6.938;2023-02-01T04:16:11;5.40;99.90
12436;DHT22;6282;51.440;6.938;2023-02-01T04:18:38;5.40;99.90
12436;DHT22;6282;51.440;6.938;2023-02-01T04:21:06;5.40;99.90
12436;DHT22;6282;51.440;6.938;2023-02-01T04:23:32;5.40;99.90
12436;DHT22;6282;51.440;6.938;2023-02-01T04:25:59;5.50;99.90
12436;DHT22;6282;51.440;6.938;2023-02-01T04:28:28;5.40;99.90
12436;DHT22;6282;51.440;6.938;2023-02-01T04:30:56;5.40;99.90
12436;DHT22;6282;51.440;6.938;2023-02-01T04:33:23;5.40;99.90
12436;DHT22;6282;51.440;6.938;2023-02-01T04:35:49;5.40;99.90
12436;DHT22;6282;51.440;6.938;2023-02-01T04:38:16;5.40;99.90
12436;DHT22;6282;51.440;6.938;2023-02-01T04:40:45;5.30;99.90
12436;DHT22;6282;51.440;6.938;2023-02-01T04:43:12;5.30;99.90
12436;DHT22;6282;51.440;6.938;2023-02-01T04:45:41;5.30;99.90
12436;DHT22;6282;51.440;6.938;2023-02-01T04:48:08;5.50;99.90
12436;DHT22;6282;51.440;6.938;2023-02-01T04:50:34;5.50;99.90
12436;DHT22;6282;51.440;6.938;2023-02-01T04:53:01;5.40;99.90
12436;DHT22;6282;51.440;6.938;2023-02-01T04:55:28;5.50;99.90
12436;DHT22;6282;51.440;6.938;2023-02-01T04:57:56;5.30;99.90
12436;DHT22;6282;51.440;6.938;2023-02-01T05:00:23;5.40;99.90
12436;DHT22;6282;51.440;6.938;2023-02-01T05:02:51;5.40;99.90
12436;DHT22;6282;51.440;6.938;2023-02-01T05:05:18;5.30;99.90
12436;DHT22;6282;51.440;6.938;2023-02-01T05:07:45;5.40;99.90
12436;DHT22;6282;51.440;6.938;2023-02-01T05:10:12;5.50;99.90
12436;DHT22;6282;51.440;6.938;2023-02-01T05:12:39;5.40;99.90
12436;DHT22;6282;51.440;6.938;2023-02-01T05:15:23;5.30;99.90
12436;DHT22;6282;51.440;6.938;2023-02-01T05:17:51;5.30;99.90
12436;DHT22;6282;51.440;6.938;2023-02-01T05:20:18;5.40;99.90
12436;DHT22;6282;51.440;6.938;2023-02-01T05:22:45;5.30;99.90
12436;DHT22;6282;51.440;6.938;2023-02-01T05:25:12;5.20;99.90
12436;DHT22;6282;51.440;6.938;2023-02-01T05:27:39;5.20;99.90
12436;DHT22;6282;51.440;6.938;2023-02-01T05:30:07;5.20;99.90
12436;DHT22;6282;51.440;6.938;2023-02-01T05:32:34;5.30;99.90
12436;DHT22;6282;51.440;6.938;2023-02-01T05:35:02;5.20;99.90
12436;DHT22;6282;51.440;6.938;2023-02-01T05:37:29;5.20;99.90
12436;DHT22;6282;51.440;6.938;2023-02-01T05:39:56;5.30;99.90
12436;DHT22;6282;51.440;6.938;2023-02-01T05:42:23;5.20;99.90
12436;DHT22;6282;51.440;6.938;2023-02-01T05:44:49;5.20;99.90
12436;DHT22;6282;51.440;6.938;2023-02-01T05:47:16;5.10;99.90
12436;DHT22;6282;51.440;6.938;2023-02-01T05:49:43;5.10;99.90
12436;DHT22;6282;51.440;6.938;2023-02-01T05:52:11;5.00;99.90
12436;DHT22;6282;51.440;6.938;2023-02-01T05:54:38;5.10;99.90
12436;DHT22;6282;51.440;6.938;2023-02-01T05:57:05;5.10;99.90
12436;DHT22;6282;51.440;6.938;2023-02-01T05:59:31;5.00;99.90
12436;DHT22;6282;51.440;6.938;2023-02-01T06:01:58;5.00;99.90
12436;DHT22;6282;51.440;6.938;2023-02-01T06:04:25;5.00;99.90
12436;DHT22;6282;51.440;6.938;2023-02-01T06:06:52;5.00;99.90
12436;DHT22;6282;51.440;6.938;2023-02-01T06:09:20;5.10;99.90
12436;DHT22;6282;51.440;6.938;2023-02-01T06:11:47;5.20;99.90
12436;DHT22;6282;51.440;6.938;2023-02-01T06:14:13;5.20;99.90
12436;DHT22;6282;51.440;6.938;2023-02-01T06:16:40;5.20;99.90
12436;DHT22;6282;51.440;6.938;2023-02-01T06:19:07;5.40;99.90
12436;DHT22;6282;51.440;6.938;2023-02-01T06:21:35;5.30;99.90
12436;DHT22;6282;51.440;6.938;2023-02-01T06:24:02;5.30;99.90
12436;DHT22;6282;51.440;6.938;2023-02-01T06:26:30;5.30;99.90
12436;DHT22;6282;51.440;6.938;2023-02-01T06:28:57;5.30;99.90
12436;DHT22;6282;51.440;6.938;2023-02-01T06:31:24;5.30;99.90
12436;DHT22;6282;51.440;6.938;2023-02-01T06:33:51;5.30;99.90
12436;DHT22;6282;51.440;6.938;2023-02-01T06:36:19;5.30;99.90
12436;DHT22;6282;51.440;6.938;2023-02-01T06:38:46;5.40;99.90
12436;DHT22;6282;51.440;6.938;2023-02-01T06:41:14;5.30;99.90
12436;DHT22;6282;51.440;6.938;2023-02-01T06:43:42;5.40;99.90
12436;DHT22;6282;51.440;6.938;2023-02-01T06:46:11;5.40;99.90
12436;DHT22;6282;51.440;6.938;2023-02-01T06:48:39;5.50;99.90
12436;DHT22;6282;51.440;6.938;2023-02-01T06:51:06;5.50;99.90
12436;DHT22;6282;51.440;6.938;2023-02-01T06:53:33;5.50;99.90
12436;DHT22;6282;51.440;6.938;2023-02-01T06:56:02;5.60;99.90
12436;DHT22;6282;51.440;6.938;2023-02-01T06:58:30;5.60;99.90
12436;DHT22;6282;51.440;6.938;2023-02-01T07:01:04;5.60;99.90
12436;DHT22;6282;51.440;6.938;2023-02-01T07:03:31;5.50;99.90
12436;DHT22;6282;51.440;6.938;2023-02-01T07:05:58;5.50;99.90
12436;DHT22;6282;51.440;6.938;2023-02-01T07:08:26;5.60;99.90
12436;DHT22;6282;51.440;6.938;2023-02-01T07:10:53;5.70;99.90
12436;DHT22;6282;51.440;6.938;2023-02-01T07:13:20;5.60;99.90
12436;DHT22;6282;51.440;6.938;2023-02-01T07:15:47;5.60;99.90
12436;DHT22;6282;51.440;6.938;2023-02-01T07:18:15;5.70;99.90
12436;DHT22;6282;51.440;6.938;2023-02-01T07:20:42;5.60;99.90
12436;DHT22;6282;51.440;6.938;2023-02-01T07:23:10;5.60;99.90
12436;DHT22;6282;51.440;6.938;2023-02-01T07:25:36;5.60;99.90
12436;DHT22;6282;51.440;6.938;2023-02-01T07:28:03;5.70;99.90
12436;DHT22;6282;51.440;6.938;2023-02-01T07:30:30;5.70;99.90
12436;DHT22;6282;51.440;6.938;2023-02-01T07:32:57;5.70;99.90
12436;DHT22;6282;51.440;6.938;2023-02-01T07:35:28;5.70;99.90
12436;DHT22;6282;51.440;6.938;2023-02-01T07:37:55;5.70;99.90
12436;DHT22;6282;51.440;6.938;2023-02-01T07:40:23;5.70;99.90
12436;DHT22;6282;51.440;6.938;2023-02-01T07:42:54;5.80;99.90
12436;DHT22;6282;51.440;6.938;2023-02-01T07:45:21;5.80;99.90
12436;DHT22;6282;51.440;6.938;2023-02-01T07:47:48;5.80;99.90
12436;DHT22;6282;51.440;6.938;2023-02-01T07:50:15;5.80;99.90
12436;DHT22;6282;51.440;6.938;2023-02-01T07:52:43;5.80;99.90
12436;DHT22;6282;51.440;6.938;2023-02-01T07:55:10;5.80;99.90
12436;DHT22;6282;51.440;6.938;2023-02-01T07:57:37;5.80;99.90
12436;DHT22;6282;51.440;6.938;2023-02-01T08:00:05;5.80;99.90
12436;DHT22;6282;51.440;6.938;2023-02-01T08:02:49;5.80;99.90
12436;DHT22;6282;51.440;6.938;2023-02-01T08:05:16;5.80;99.90
12436;DHT22;6282;51.440;6.938;2023-02-01T08:07:48;5.90;99.90
12436;DHT22;6282;51.440;6.938;2023-02-01T08:10:16;5.90;99.90
12436;DHT22;6282;51.440;6.938;2023-02-01T08:12:43;5.90;99.90
12436;DHT22;6282;51.440;6.938;2023-02-01T08:15:13;5.90;99.90
12436;DHT22;6282;51.440;6.938;2023-02-01T08:17:40;5.90;99.90
12436;DHT22;6282;51.440;6.938;2023-02-01T08:20:12;5.90;99.90
12436;DHT22;6282;51.440;6.938;2023-02-01T08:22:39;5.90;99.90
12436;DHT22;6282;51.440;6.938;2023-02-01T08:25:08;5.90;99.90
12436;DHT22;6282;51.440;6.938;2023-02-01T08:27:35;5.90;99.90
12436;DHT22;6282;51.440;6.938;2023-02-01T08:30:03;5.90;99.90
12436;DHT22;6282;51.440;6.938;2023-02-01T08:32:30;5.90;99.90
12436;DHT22;6282;51.440;6.938;2023-02-01T08:34:57;5.90;99.90
12436;DHT22;6282;51.440;6.938;2023-02-01T08:37:23;5.90;99.90
12436;DHT22;6282;51.440;6.938;2023-02-01T08:39:50;5.90;99.90
12436;DHT22;6282;51.440;6.938;2023-02-01T08:42:18;6.00;99.90
12436;DHT22;6282;51.440;6.938;2023-02-01T08:45:04;6.00;99.90
12436;DHT22;6282;51.440;6.938;2023-02-01T08:47:33;6.00;99.90
12436;DHT22;6282;51.440;6.938;2023-02-01T08:50:01;6.00;99.90
12436;DHT22;6282;51.440;6.938;2023-02-01T08:52:28;6.00;99.90
12436;DHT22;6282;51.440;6.938;2023-02-01T08:54:55;6.00;99.90
12436;DHT22;6282;51.440;6.938;2023-02-01T08:57:23;6.00;99.90
12436;DHT22;6282;51.440;6.938;2023-02-01T08:59:50;6.20;99.90
12436;DHT22;6282;51.440;6.938;2023-02-01T09:02:17;6.00;99.90
12436;DHT22;6282;51.440;6.938;2023-02-01T09:04:44;6.00;99.90
12436;DHT22;6282;51.440;6.938;2023-02-01T09:07:11;6.20;99.90
12436;DHT22;6282;51.440;6.938;2023-02-01T09:09:40;6.00;99.90
12436;DHT22;6282;51.440;6.938;2023-02-01T09:12:08;6.00;99.90
12436;DHT22;6282;51.440;6.938;2023-02-01T09:14:36;6.00;99.90
12436;DHT22;6282;51.440;6.938;2023-02-01T09:17:03;6.00;99.90
12436;DHT22;6282;51.440;6.938;2023-02-01T09:19:31;6.00;99.90
12436;DHT22;6282;51.440;6.938;2023-02-01T09:21:58;6.10;99.90
12436;DHT22;6282;51.440;6.938;2023-02-01T09:24:25;6.10;99.90
12436;DHT22;6282;51.440;6.938;2023-02-01T09:26:52;6.20;99.90
12436;DHT22;6282;51.440;6.938;2023-02-01T09:29:18;6.10;99.90
12436;DHT22;6282;51.440;6.938;2023-02-01T09:31:47;6.00;99.90
12436;DHT22;6282;51.440;6.938;2023-02-01T09:34:13;6.10;99.90
12436;DHT22;6282;51.440;6.938;2023-02-01T09:36:40;6.10;99.90
12436;DHT22;6282;51.440;6.938;2023-02-01T09:39:07;6.10;99.90
12436;DHT22;6282;51.440;6.938;2023-02-01T09:41:46;6.20;99.90
12436;DHT22;6282;51.440;6.938;2023-02-01T09:44:32;6.30;99.90
12436;DHT22;6282;51.440;6.938;2023-02-01T09:47:03;6.20;99.90
12436;DHT22;6282;51.440;6.938;2023-02-01T09:49:31;6.20;99.90
12436;DHT22;6282;51.440;6.938;2023-02-01T09:52:02;6.20;99.90
12436;DHT22;6282;51.440;6.938;2023-02-01T09:54:41;6.20;99.90
12436;DHT22;6282;51.440;6.938;2023-02-01T09:57:13;6.20;99.90
12436;DHT22;6282;51.440;6.938;2023-02-01T09:59:43;6.30;99.90
12436;DHT22;6282;51.440;6.938;2023-02-01T10:02:15;6.30;99.90
12436;DHT22;6282;51.440;6.938;2023-02-01T10:04:43;6.30;99.90
12436;DHT22;6282;51.440;6.938;2023-02-01T10:07:20;6.30;99.90
12436;DHT22;6282;51.440;6.938;2023-02-01T10:09:57;6.30;99.90
12436;DHT22;6282;51.440;6.938;2023-02-01T10:12:36;6.30;99.90
12436;DHT22;6282;51.440;6.938;2023-02-01T10:15:19;6.30;99.90
12436;DHT22;6282;51.440;6.938;2023-02-01T10:17:57;6.30;99.90
12436;DHT22;6282;51.440;6.938;2023-02-01T10:20:31;6.40;99.90
12436;DHT22;6282;51.440;6.938;2023-02-01T10:23:14;6.50;99.90
12436;DHT22;6282;51.440;6.938;2023-02-01T10:25:51;6.50;99.90
12436;DHT22;6282;51.440;6.938;2023-02-01T10:28:20;6.60;99.90
12436;DHT22;6282;51.440;6.938;2023-02-01T10:30:49;6.60;99.90
12436;DHT22;6282;51.440;6.938;2023-02-01T10:33:24;6.60;99.90
12436;DHT22;6282;51.440;6.938;2023-02-01T10:35:54;6.60;99.90
12436;DHT22;6282;51.440;6.938;2023-02-01T10:38:25;6.60;99.90
12436;DHT22;6282;51.440;6.938;2023-02-01T10:40:53;6.50;99.90
12436;DHT22;6282;51.440;6.938;2023-02-01T10:43:21;6.80;99.90
12436;DHT22;6282;51.440;6.938;2023-02-01T10:45:48;6.60;99.90
12436;DHT22;6282;51.440;6.938;2023-02-01T10:48:15;6.50;99.90
12436;DHT22;6282;51.440;6.938;2023-02-01T10:50:51;6.60;99.90
12436;DHT22;6282;51.440;6.938;2023-02-01T10:53:23;6.60;99.90
12436;DHT22;6282;51.440;6.938;2023-02-01T10:55:51;6.60;99.90
12436;DHT22;6282;51.440;6.938;2023-02-01T10:58:20;6.70;99.90
12436;DHT22;6282;51.440;6.938;2023-02-01T11:00:52;6.80;99.90
12436;DHT22;6282;51.440;6.938;2023-02-01T11:03:41;6.70;99.90
12436;DHT22;6282;51.440;6.938;2023-02-01T11:06:24;6.80;99.90
12436;DHT22;6282;51.440;6.938;2023-02-01T11:08:53;6.70;99.90
12436;DHT22;6282;51.440;6.938;2023-02-01T11:11:20;6.70;99.90
12436;DHT22;6282;51.440;6.938;2023-02-01T11:13:56;6.80;99.90
12436;DHT22;6282;51.440;6.938;2023-02-01T11:16:30;6.80;99.90
12436;DHT22;6282;51.440;6.938;2023-02-01T11:18:58;6.80;99.90
12436;DHT22;6282;51.440;6.938;2023-02-01T11:21:27;6.80;99.90
12436;DHT22;6282;51.440;6.938;2023-02-01T11:23:54;6.80;99.90
12436;DHT22;6282;51.440;6.938;2023-02-01T11:26:23;6.80;99.90
12436;DHT22;6282;51.440;6.938;2023-02-01T11:28:54;6.70;99.90
12436;DHT22;6282;51.440;6.938;2023-02-01T11:31:24;6.80;99.90
12436;DHT22;6282;51.440;6.938;2023-02-01T11:33:54;6.80;99.90
12436;DHT22;6282;51.440;6.938;2023-02-01T11:36:26;6.80;99.90
12436;DHT22;6282;51.440;6.938;2023-02-01T11:39:06;6.90;99.90
12436;DHT22;6282;51.440;6.938;2023-02-01T11:41:34;6.90;99.90
12436;DHT22;6282;51.440;6.938;2023-02-01T11:44:20;6.90;99.90
12436;DHT22;6282;51.440;6.938;2023-02-01T11:46:48;6.90;99.90
12436;DHT22;6282;51.440;6.938;2023-02-01T11:49:21;6.90;99.90
12436;DHT22;6282;51.440;6.938;2023-02-01T11:52:00;6.90;99.90
12436;DHT22;6282;51.440;6.938;2023-02-01T11:54:45;6.80;99.90
12436;DHT22;6282;51.440;6.938;2023-02-01T11:57:30;6.70;99.90
12436;DHT22;6282;51.440;6.938;2023-02-01T12:00:12;6.60;99.90
12436;DHT22;6282;51.440;6.938;2023-02-01T12:05:58;6.50;99.90
12436;DHT22;6282;51.440;6.938;2023-02-01T12:08:39;6.60;99.90
12436;DHT22;6282;51.440;6.938;2023-02-01T12:11:25;6.60;99.90
12436;DHT22;6282;51.440;6.938;2023-02-01T12:14:01;6.60;99.90
12436;DHT22;6282;51.440;6.938;2023-02-01T12:16:35;6.60;99.90
12436;DHT22;6282;51.440;6.938;2023-02-01T12:19:28;6.60;99.90
12436;DHT22;6282;51.440;6.938;2023-02-01T12:22:15;6.80;99.90
12436;DHT22;6282;51.440;6.938;2023-02-01T12:25:06;6.70;99.90
12436;DHT22;6282;51.440;6.938;2023-02-01T12:27:56;6.70;99.90
12436;DHT22;6282;51.440;6.938;2023-02-01T12:30:57;6.80;99.90
12436;DHT22;6282;51.440;6.938;2023-02-01T12:33:37;6.80;99.90
12436;DHT22;6282;51.440;6.938;2023-02-01T12:36:14;6.80;99.90
12436;DHT22;6282;51.440;6.938;2023-02-01T12:38:49;6.90;99.90
12436;DHT22;6282;51.440;6.938;2023-02-01T12:41:36;6.90;99.90
12436;DHT22;6282;51.440;6.938;2023-02-01T12:44:10;6.90;99.90
12436;DHT22;6282;51.440;6.938;2023-02-01T12:46:41;6.90;99.90
12436;DHT22;6282;51.440;6.938;2023-02-01T12:49:14;6.80;99.90
12436;DHT22;6282;51.440;6.938;2023-02-01T12:51:44;7.00;99.90
12436;DHT22;6282;51.440;6.938;2023-02-01T12:54:15;7.00;99.90
12436;DHT22;6282;51.440;6.938;2023-02-01T12:56:48;7.00;99.90
12436;DHT22;6282;51.440;6.938;2023-02-01T12:59:20;7.30;99.90
12436;DHT22;6282;51.440;6.938;2023-02-01T13:01:54;7.30;99.90
12436;DHT22;6282;51.440;6.938;2023-02-01T13:04:28;7.10;99.90
12436;DHT22;6282;51.440;6.938;2023-02-01T13:07:03;7.00;99.90
12436;DHT22;6282;51.440;6.938;2023-02-01T13:09:37;6.90;99.90
12436;DHT22;6282;51.440;6.938;2023-02-01T13:12:12;6.90;99.90
12436;DHT22;6282;51.440;6.938;2023-02-01T13:14:43;7.00;99.90
12436;DHT22;6282;51.440;6.938;2023-02-01T13:17:15;6.90;99.90
12436;DHT22;6282;51.440;6.938;2023-02-01T13:19:47;6.90;99.90
12436;DHT22;6282;51.440;6.938;2023-02-01T13:22:19;6.90;99.90
12436;DHT22;6282;51.440;6.938;2023-02-01T13:24:49;6.90;99.90
12436;DHT22;6282;51.440;6.938;2023-02-01T13:27:18;7.00;99.90
12436;DHT22;6282;51.440;6.938;2023-02-01T13:29:53;7.00;99.90
12436;DHT22;6282;51.440;6.938;2023-02-01T13:36:05;7.10;99.90
12436;DHT22;6282;51.440;6.938;2023-02-01T13:38:44;7.10;99.90
12436;DHT22;6282;51.440;6.938;2023-02-01T13:41:26;7.20;99.90
12436;DHT22;6282;51.440;6.938;2023-02-01T13:43:58;7.20;99.90
12436;DHT22;6282;51.440;6.938;2023-02-01T13:46:29;7.30;99.90
12436;DHT22;6282;51.440;6.938;2023-02-01T13:49:18;7.30;99.90
12436;DHT22;6282;51.440;6.938;2023-02-01T13:51:49;7.30;99.90
12436;DHT22;6282;51.440;6.938;2023-02-01T13:54:29;7.40;99.90
12436;DHT22;6282;51.440;6.938;2023-02-01T13:56:58;7.40;99.90
12436;DHT22;6282;51.440;6.938;2023-02-01T14:00:06;7.30;99.90
12436;DHT22;6282;51.440;6.938;2023-02-01T14:03:12;7.30;99.90
12436;DHT22;6282;51.440;6.938;2023-02-01T14:06:03;7.30;99.90
12436;DHT22;6282;51.440;6.938;2023-02-01T14:08:42;7.30;99.90
12436;DHT22;6282;51.440;6.938;2023-02-01T14:11:34;7.40;99.90
12436;DHT22;6282;51.440;6.938;2023-02-01T14:17:36;7.40;99.90
12436;DHT22;6282;51.440;6.938;2023-02-01T14:23:20;7.40;99.90
12436;DHT22;6282;51.440;6.938;2023-02-01T14:26:03;7.40;99.90
12436;DHT22;6282;51.440;6.938;2023-02-01T14:28:35;7.50;99.90
12436;DHT22;6282;51.440;6.938;2023-02-01T14:31:14;7.50;99.90
12436;DHT22;6282;51.440;6.938;2023-02-01T14:33:44;7.50;99.90
12436;DHT22;6282;51.440;6.938;2023-02-01T14:36:13;7.50;99.90
12436;DHT22;6282;51.440;6.938;2023-02-01T14:38:47;7.50;99.90
12436;DHT22;6282;51.440;6.938;2023-02-01T14:41:29;7.60;99.90
12436;DHT22;6282;51.440;6.938;2023-02-01T14:44:25;7.60;99.90
12436;DHT22;6282;51.440;6.938;2023-02-01T14:50:24;7.60;99.90
12436;DHT22;6282;51.440;6.938;2023-02-01T14:53:03;7.70;99.90
12436;DHT22;6282;51.440;6.938;2023-02-01T14:55:35;7.60;99.90
12436;DHT22;6282;51.440;6.938;2023-02-01T14:58:07;7.60;99.90
12436;DHT22;6282;51.440;6.938;2023-02-01T15:00:37;7.60;99.90
12436;DHT22;6282;51.440;6.938;2023-02-01T15:03:23;7.50;99.90
12436;DHT22;6282;51.440;6.938;2023-02-01T15:05:56;7.60;99.90
12436;DHT22;6282;51.440;6.938;2023-02-01T15:08:26;7.70;99.90
12436;DHT22;6282;51.440;6.938;2023-02-01T15:10:54;7.50;99.90
12436;DHT22;6282;51.440;6.938;2023-02-01T15:13:23;7.50;99.90
12436;DHT22;6282;51.440;6.938;2023-02-01T15:16:01;7.50;99.90
12436;DHT22;6282;51.440;6.938;2023-02-01T15:18:28;7.50;99.90
12436;DHT22;6282;51.440;6.938;2023-02-01T15:21:01;7.60;99.90
12436;DHT22;6282;51.440;6.938;2023-02-01T15:23:28;7.50;99.90
12436;DHT22;6282;51.440;6.938;2023-02-01T15:25:56;7.60;99.90
12436;DHT22;6282;51.440;6.938;2023-02-01T15:28:23;7.60;99.90
12436;DHT22;6282;51.440;6.938;2023-02-01T15:30:56;7.60;99.90
12436;DHT22;6282;51.440;6.938;2023-02-01T15:33:24;7.60;99.90
12436;DHT22;6282;51.440;6.938;2023-02-01T15:35:52;7.60;99.90
12436;DHT22;6282;51.440;6.938;2023-02-01T15:38:41;7.70;99.90
12436;DHT22;6282;51.440;6.938;2023-02-01T15:41:11;7.60;99.90
12436;DHT22;6282;51.440;6.938;2023-02-01T15:43:42;7.70;99.90
12436;DHT22;6282;51.440;6.938;2023-02-01T15:46:12;7.70;99.90
12436;DHT22;6282;51.440;6.938;2023-02-01T15:48:45;7.60;99.90
12436;DHT22;6282;51.440;6.938;2023-02-01T15:51:18;7.70;99.90
12436;DHT22;6282;51.440;6.938;2023-02-01T15:53:50;7.60;99.90
12436;DHT22;6282;51.440;6.938;2023-02-01T15:56:22;7.60;99.90
12436;DHT22;6282;51.440;6.938;2023-02-01T15:58:53;7.70;99.90
12436;DHT22;6282;51.440;6.938;2023-02-01T16:01:21;7.60;99.90
12436;DHT22;6282;51.440;6.938;2023-02-01T16:03:49;7.60;99.90
12436;DHT22;6282;51.440;6.938;2023-02-01T16:06:30;7.60;99.90
12436;DHT22;6282;51.440;6.938;2023-02-01T16:09:08;7.60;99.90
12436;DHT22;6282;51.440;6.938;2023-02-01T16:11:41;7.60;99.90
12436;DHT22;6282;51.440;6.938;2023-02-01T16:14:08;7.60;99.90
12436;DHT22;6282;51.440;6.938;2023-02-01T16:16:35;7.80;99.90
12436;DHT22;6282;51.440;6.938;2023-02-01T16:19:02;7.60;99.90
12436;DHT22;6282;51.440;6.938;2023-02-01T16:21:28;7.60;99.90
12436;DHT22;6282;51.440;6.938;2023-02-01T16:23:55;7.60;99.90
12436;DHT22;6282;51.440;6.938;2023-02-01T16:26:24;7.50;99.90
12436;DHT22;6282;51.440;6.938;2023-02-01T16:28:51;7.40;99.90
12436;DHT22;6282;51.440;6.938;2023-02-01T16:31:21;7.10;99.90
12436;DHT22;6282;51.440;6.938;2023-02-01T16:33:51;6.90;99.90
12436;DHT22;6282;51.440;6.938;2023-02-01T16:36:18;6.90;99.90
12436;DHT22;6282;51.440;6.938;2023-02-01T16:38:46;7.00;99.90
12436;DHT22;6282;51.440;6.938;2023-02-01T16:41:16;7.00;99.90
12436;DHT22;6282;51.440;6.938;2023-02-01T16:43:45;7.00;99.90
12436;DHT22;6282;51.440;6.938;2023-02-01T16:46:17;7.10;99.90
12436;DHT22;6282;51.440;6.938;2023-02-01T16:48:50;7.10;99.90
12436;DHT22;6282;51.440;6.938;2023-02-01T16:51:17;7.10;99.90
12436;DHT22;6282;51.440;6.938;2023-02-01T16:53:45;7.10;99.90